KLUF/LUF METAR and TAF weather

Enter ICAO airport designator
Station Type Date Time Source
KLUF METAR 2020/03/31 06:58 UTC NOAA

KLUF 310658Z AUTO 02003KT 10SM CLR 16/04 A3009 RMK AO2 SLP184 T01550036 402480089 $


Station Type Date Time Source
KLUF Decoded METAR 2020/03/31 06:58 UTC NOAA

Luke Air Force Base / Phoenix, AZ, United States (KLUF) 33-32N 112-23W 332M
Mar 31, 2020 - 02:58 AM EDT / 2020.03.31 0658 UTC
Wind: from the NNE (020 degrees) at 3 MPH (3 KT):0
Visibility: 10 mile(s):0
Sky conditions: clear
Temperature: 59.9 F (15.5 C)
Dew Point: 38.5 F (3.6 C)
Relative Humidity: 44%
Pressure (altimeter): 30.09 in. Hg (1018 hPa)
ob: KLUF 310658Z AUTO 02003KT 10SM CLR 16/04 A3009 RMK AO2 SLP184 T01550036 402480089
cycle: 7

Station Type Date Time Source
KLUF TAF 2020/03/31 00:56 UTC NOAA

TAF
AMD KLUF 310040Z 3100/0102 VRB06KT 9999 FEW250 QNH3001INS
BECMG 3110/3111 VRB06KT 9999 SCT250 QNH2999INS
BECMG 3122/3123 VRB06KT 9999 BKN180 QNH2981INS TX27/3123Z TN10/3113Z LAST NO
AMDS AFT 3103 NEXT 3112

Example: see airport list